createdAt,value
2023-03-10T00:01:24.473Z,18.70
2023-03-10T00:03:53.794Z,16.40
2023-03-10T00:06:23.240Z,17.80
2023-03-10T00:08:50.965Z,17.80
2023-03-10T00:11:18.790Z,16.80
2023-03-10T00:13:47.010Z,15.40
2023-03-10T00:16:18.071Z,19.60
2023-03-10T00:18:46.484Z,13.30
2023-03-10T00:21:18.837Z,13.80
2023-03-10T00:23:47.120Z,14.80
2023-03-10T00:26:15.949Z,17.00
2023-03-10T00:28:43.731Z,13.10
2023-03-10T00:31:13.023Z,19.50
2023-03-10T00:33:41.152Z,19.20
2023-03-10T00:36:09.210Z,16.50
2023-03-10T00:38:40.056Z,13.00
2023-03-10T00:41:09.129Z,12.20
2023-03-10T00:43:36.949Z,17.00
2023-03-10T00:46:05.122Z,13.40
2023-03-10T00:48:37.381Z,15.70
2023-03-10T00:51:06.842Z,15.00
2023-03-10T00:53:41.744Z,15.90
2023-03-10T00:56:23.184Z,15.10
2023-03-10T00:58:51.988Z,16.80
2023-03-10T01:01:21.494Z,18.40
2023-03-10T01:03:53.137Z,16.20
2023-03-10T01:06:21.391Z,20.50
2023-03-10T01:08:55.528Z,16.90
2023-03-10T01:11:24.895Z,21.50
2023-03-10T01:13:52.997Z,21.40
2023-03-10T01:16:20.762Z,14.30
2023-03-10T01:18:48.888Z,12.30
2023-03-10T01:21:19.316Z,16.60
2023-03-10T01:23:47.413Z,12.10
2023-03-10T01:26:18.730Z,18.40
2023-03-10T01:28:48.126Z,17.40
2023-03-10T01:31:16.296Z,16.50
2023-03-10T01:33:46.015Z,15.30
2023-03-10T01:36:22.440Z,18.50
2023-03-10T01:38:56.974Z,20.70
2023-03-10T01:41:24.864Z,16.40
2023-03-10T01:43:56.766Z,18.20
2023-03-10T01:46:24.525Z,20.20
2023-03-10T01:48:53.494Z,13.40
2023-03-10T01:51:21.469Z,14.00
2023-03-10T01:53:49.695Z,27.70
2023-03-10T01:56:17.695Z,15.00
2023-03-10T01:58:46.227Z,17.10
2023-03-10T02:01:14.731Z,19.10
2023-03-10T02:03:53.096Z,17.20
2023-03-10T02:06:21.936Z,18.10
2023-03-10T02:08:54.501Z,14.10
2023-03-10T02:11:22.593Z,29.60
2023-03-10T02:13:52.110Z,14.50
2023-03-10T02:16:20.288Z,12.90
2023-03-10T02:18:48.653Z,21.10
2023-03-10T02:21:37.645Z,17.40
2023-03-10T02:24:09.139Z,14.20
2023-03-10T02:26:36.792Z,16.40
2023-03-10T02:29:07.432Z,12.40
2023-03-10T02:31:41.966Z,17.80
2023-03-10T02:34:10.324Z,14.80
2023-03-10T02:36:38.056Z,14.40
2023-03-10T02:39:05.738Z,20.30
2023-03-10T02:41:35.307Z,17.60
2023-03-10T02:44:06.575Z,14.10
2023-03-10T02:46:34.535Z,19.60
2023-03-10T02:49:03.768Z,15.30
2023-03-10T02:51:41.749Z,21.70
2023-03-10T02:54:12.917Z,14.30
2023-03-10T02:56:42.430Z,15.80
2023-03-10T02:59:11.083Z,15.60
2023-03-10T03:01:42.567Z,18.20
2023-03-10T03:04:18.516Z,18.40
2023-03-10T03:06:46.553Z,16.20
2023-03-10T03:09:14.569Z,19.90
2023-03-10T03:11:42.501Z,18.30
2023-03-10T03:14:10.487Z,17.70
2023-03-10T03:16:38.779Z,18.30
2023-03-10T03:19:08.358Z,16.10
2023-03-10T03:21:37.899Z,20.60
2023-03-10T03:24:05.707Z,20.40
2023-03-10T03:26:37.234Z,18.00
2023-03-10T03:29:12.090Z,19.10
2023-03-10T03:31:41.148Z,20.10
2023-03-10T03:34:26.330Z,16.60
2023-03-10T03:36:56.592Z,17.80
2023-03-10T03:39:29.335Z,20.40
2023-03-10T03:41:59.990Z,12.80
2023-03-10T03:44:31.114Z,18.00
2023-03-10T03:46:58.805Z,15.10
2023-03-10T03:49:26.981Z,17.80
2023-03-10T03:51:54.963Z,17.70
2023-03-10T03:54:24.101Z,14.10
2023-03-10T03:56:51.905Z,13.90
2023-03-10T03:59:20.075Z,14.40
2023-03-10T04:01:48.092Z,16.80
2023-03-10T04:04:15.835Z,22.00
2023-03-10T04:06:43.977Z,15.30
2023-03-10T04:09:13.894Z,14.80
2023-03-10T04:11:41.741Z,17.00
2023-03-10T04:14:09.763Z,17.00
2023-03-10T04:16:37.626Z,14.20
2023-03-10T04:19:07.833Z,20.70
2023-03-10T04:21:37.689Z,15.00
2023-03-10T04:24:05.791Z,18.30
2023-03-10T04:26:33.719Z,15.40
2023-03-10T04:29:09.356Z,17.50
2023-03-10T04:31:38.031Z,14.10
2023-03-10T04:34:06.789Z,15.60
2023-03-10T04:36:34.663Z,17.20
2023-03-10T04:39:05.173Z,18.80
2023-03-10T04:41:33.119Z,18.70
2023-03-10T04:44:00.830Z,24.10
2023-03-10T04:46:35.465Z,22.80
2023-03-10T04:49:03.611Z,16.00
2023-03-10T04:51:31.286Z,19.70
2023-03-10T04:54:00.361Z,18.40
2023-03-10T04:56:30.642Z,17.00
2023-03-10T04:58:58.405Z,22.90
2023-03-10T05:01:26.458Z,23.90
2023-03-10T05:04:02.656Z,16.90
2023-03-10T05:06:30.601Z,22.90
2023-03-10T05:09:05.131Z,25.80
2023-03-10T05:11:39.681Z,18.30
2023-03-10T05:14:07.432Z,25.50
2023-03-10T05:16:35.263Z,19.00
2023-03-10T05:19:03.150Z,20.10
2023-03-10T05:21:32.086Z,18.60
2023-03-10T05:23:59.968Z,30.30
2023-03-10T05:26:27.993Z,22.00
2023-03-10T05:28:56.448Z,16.70
2023-03-10T05:31:35.067Z,17.50
2023-03-10T05:34:07.466Z,22.10
2023-03-10T05:36:35.232Z,22.10
2023-03-10T05:39:05.980Z,22.20
2023-03-10T05:41:38.323Z,18.00
2023-03-10T05:44:06.809Z,30.60
2023-03-10T05:46:35.995Z,22.40
2023-03-10T05:49:03.867Z,29.50
2023-03-10T05:51:31.900Z,17.60
2023-03-10T05:54:01.425Z,20.80
2023-03-10T05:56:30.055Z,19.30
2023-03-10T05:59:00.642Z,20.40
2023-03-10T06:01:32.538Z,23.80
2023-03-10T06:04:00.386Z,22.30
2023-03-10T06:06:28.703Z,24.20
2023-03-10T06:08:57.617Z,25.10
2023-03-10T06:11:25.326Z,28.70
2023-03-10T06:13:53.448Z,29.20
2023-03-10T06:16:21.338Z,20.90
2023-03-10T06:18:52.341Z,17.20
2023-03-10T06:21:20.059Z,35.70
2023-03-10T06:23:47.744Z,52.00
2023-03-10T06:26:17.529Z,65.90
2023-03-10T06:28:52.192Z,53.60
2023-03-10T06:31:22.681Z,45.50
2023-03-10T06:33:50.911Z,45.00
2023-03-10T06:36:19.209Z,45.10
2023-03-10T06:38:47.532Z,34.00
2023-03-10T06:41:16.627Z,25.30
2023-03-10T06:43:44.593Z,52.60
2023-03-10T06:46:12.904Z,39.30
2023-03-10T06:48:41.557Z,78.90
2023-03-10T06:51:11.467Z,46.70
2023-03-10T06:53:39.273Z,34.00
2023-03-10T06:56:08.790Z,25.70
2023-03-10T06:58:37.165Z,28.30
2023-03-10T07:01:05.478Z,37.00
2023-03-10T07:03:33.671Z,40.30
2023-03-10T07:06:01.574Z,25.30
2023-03-10T07:08:30.280Z,23.30
2023-03-10T07:10:57.994Z,23.90
2023-03-10T07:13:25.808Z,27.70
2023-03-10T07:15:53.528Z,21.30
2023-03-10T07:18:21.337Z,33.00
2023-03-10T07:20:49.159Z,25.60
2023-03-10T07:23:17.179Z,27.20
2023-03-10T07:25:45.122Z,28.80
2023-03-10T07:28:13.210Z,22.60
2023-03-10T07:30:41.110Z,21.20
2023-03-10T07:33:08.925Z,19.90
2023-03-10T07:35:37.184Z,37.90
2023-03-10T07:38:05.128Z,23.50
2023-03-10T07:40:34.517Z,22.00
2023-03-10T07:43:02.353Z,16.60
2023-03-10T07:45:33.565Z,28.50
2023-03-10T07:48:01.349Z,19.70
2023-03-10T07:50:29.139Z,22.90
2023-03-10T07:52:56.864Z,45.20
2023-03-10T07:55:24.574Z,23.40
2023-03-10T07:57:52.248Z,19.10
2023-03-10T08:00:28.182Z,19.30
2023-03-10T08:03:02.897Z,21.50
2023-03-10T08:05:41.494Z,32.70
2023-03-10T08:08:13.488Z,22.60
2023-03-10T08:10:41.236Z,31.00
2023-03-10T08:13:08.896Z,32.40
2023-03-10T08:15:37.965Z,13.40
2023-03-10T08:18:07.697Z,16.00
2023-03-10T08:20:42.414Z,19.00
2023-03-10T08:23:14.087Z,23.40
2023-03-10T08:25:41.803Z,26.40
2023-03-10T08:28:09.512Z,12.90
2023-03-10T08:30:43.671Z,17.30
2023-03-10T08:33:22.222Z,18.10
2023-03-10T08:35:49.938Z,19.10
2023-03-10T08:38:17.693Z,24.40
2023-03-10T08:40:45.512Z,13.40
2023-03-10T08:43:13.239Z,16.40
2023-03-10T08:45:40.981Z,22.00
2023-03-10T08:48:09.156Z,24.50
2023-03-10T08:50:36.914Z,46.10
2023-03-10T08:53:05.035Z,50.50
2023-03-10T08:55:32.801Z,47.10
2023-03-10T08:58:00.491Z,27.30
2023-03-10T09:00:28.484Z,107.60
2023-03-10T09:02:56.254Z,40.60
2023-03-10T09:05:23.996Z,30.80
2023-03-10T09:07:51.610Z,52.20
2023-03-10T09:10:19.316Z,37.40
2023-03-10T09:12:47.179Z,30.20
2023-03-10T09:15:14.921Z,28.50
2023-03-10T09:17:42.613Z,23.90
2023-03-10T09:20:14.774Z,20.20
2023-03-10T09:22:49.069Z,45.00
2023-03-10T09:25:16.992Z,46.80
2023-03-10T09:27:49.316Z,36.40
2023-03-10T09:30:17.760Z,44.70
2023-03-10T09:32:45.441Z,58.30
2023-03-10T09:35:13.376Z,38.60
2023-03-10T09:37:41.132Z,53.40
2023-03-10T09:40:13.967Z,55.60
2023-03-10T09:42:44.791Z,25.30
2023-03-10T09:45:35.299Z,35.80
2023-03-10T09:48:04.820Z,43.00
2023-03-10T09:50:36.138Z,27.90
2023-03-10T09:53:25.428Z,21.00
2023-03-10T09:55:53.353Z,16.30
2023-03-10T09:58:27.410Z,23.70
2023-03-10T10:00:55.139Z,20.60
2023-03-10T10:03:25.987Z,38.00
2023-03-10T10:05:55.296Z,19.90
2023-03-10T10:08:29.006Z,24.40
2023-03-10T10:10:58.329Z,24.00
2023-03-10T10:13:29.436Z,31.90
2023-03-10T10:16:24.349Z,31.10
2023-03-10T10:19:00.784Z,66.00
2023-03-10T10:21:52.589Z,72.40
2023-03-10T10:24:27.079Z,131.00
2023-03-10T10:26:55.994Z,45.00
2023-03-10T10:29:25.457Z,39.10
2023-03-10T10:32:08.885Z,91.30
2023-03-10T10:34:38.177Z,129.30
2023-03-10T10:37:24.784Z,94.00
2023-03-10T10:39:53.648Z,53.10
2023-03-10T10:42:28.897Z,55.00
2023-03-10T10:45:08.229Z,58.30
2023-03-10T10:47:37.365Z,49.40
2023-03-10T10:50:18.326Z,50.30
2023-03-10T10:52:49.287Z,27.70
2023-03-10T10:55:32.124Z,23.70
2023-03-10T10:58:01.951Z,16.70
2023-03-10T11:00:31.969Z,21.70
2023-03-10T11:03:00.069Z,21.80
2023-03-10T11:05:33.350Z,20.90
2023-03-10T11:08:18.271Z,17.60
2023-03-10T11:10:50.249Z,22.20
2023-03-10T11:13:21.861Z,16.50
2023-03-10T11:15:56.334Z,19.90
2023-03-10T11:18:36.448Z,16.20
2023-03-10T11:21:12.525Z,17.00
2023-03-10T11:23:40.174Z,25.50
2023-03-10T11:26:17.608Z,32.90
2023-03-10T11:28:55.099Z,24.10
2023-03-10T11:31:34.486Z,22.80
2023-03-10T11:34:05.405Z,28.60
2023-03-10T11:36:56.304Z,24.80
2023-03-10T11:39:45.610Z,27.10
2023-03-10T11:42:19.283Z,32.10
2023-03-10T11:44:50.838Z,32.30
2023-03-10T11:47:37.050Z,38.10
2023-03-10T11:50:27.788Z,44.60
2023-03-10T11:52:59.771Z,131.40
2023-03-10T11:55:27.776Z,103.90
2023-03-10T11:57:57.885Z,55.10
2023-03-10T12:00:31.510Z,89.80
2023-03-10T12:03:32.089Z,77.20
2023-03-10T12:06:00.645Z,50.90
2023-03-10T12:08:49.082Z,41.80
2023-03-10T12:11:21.549Z,40.00
2023-03-10T12:13:51.354Z,37.90
2023-03-10T12:16:21.707Z,51.90
2023-03-10T12:18:49.683Z,52.20
2023-03-10T12:21:19.313Z,54.10
2023-03-10T12:23:49.008Z,52.70
2023-03-10T12:26:36.773Z,61.80
2023-03-10T12:29:20.810Z,51.70
2023-03-10T12:31:50.148Z,47.50
2023-03-10T12:34:22.414Z,30.10
2023-03-10T12:36:54.569Z,36.50
2023-03-10T12:39:28.398Z,32.50
2023-03-10T12:41:56.287Z,32.30
2023-03-10T12:44:43.843Z,32.30
2023-03-10T12:47:15.847Z,28.20
2023-03-10T12:49:49.228Z,37.90
2023-03-10T12:52:20.684Z,35.70
2023-03-10T12:55:08.819Z,43.10
2023-03-10T12:57:54.127Z,31.10
2023-03-10T13:00:22.062Z,32.60
2023-03-10T13:02:54.073Z,68.70
2023-03-10T13:05:30.806Z,56.50
2023-03-10T13:08:02.361Z,51.30
2023-03-10T13:10:32.189Z,74.50
2023-03-10T13:13:01.596Z,77.80
2023-03-10T13:15:36.268Z,104.20
2023-03-10T13:18:14.441Z,149.80
2023-03-10T13:20:42.219Z,90.30
2023-03-10T13:23:21.735Z,126.80
2023-03-10T13:25:56.325Z,135.70
2023-03-10T13:28:51.380Z,87.20
2023-03-10T13:31:21.978Z,140.20
2023-03-10T13:33:53.753Z,153.10
2023-03-10T13:36:36.184Z,121.00
2023-03-10T13:39:13.464Z,94.80
2023-03-10T13:41:44.349Z,171.60
2023-03-10T13:44:17.486Z,225.20
2023-03-10T13:46:50.941Z,227.90
2023-03-10T13:49:20.363Z,200.20
2023-03-10T13:51:55.981Z,243.50
2023-03-10T13:54:25.565Z,327.90
2023-03-10T13:57:13.905Z,250.00
2023-03-10T13:59:41.931Z,220.50
2023-03-10T14:02:15.192Z,172.80
2023-03-10T14:04:46.159Z,241.80
2023-03-10T14:07:18.578Z,253.80
2023-03-10T14:09:48.034Z,430.60
2023-03-10T14:12:34.360Z,337.80
2023-03-10T14:15:11.426Z,427.00
2023-03-10T14:18:08.615Z,441.60
2023-03-10T14:20:37.910Z,404.60
2023-03-10T14:23:18.334Z,409.40
2023-03-10T14:25:47.210Z,335.00
2023-03-10T14:28:17.943Z,217.20
2023-03-10T14:30:45.807Z,230.20
2023-03-10T14:33:15.366Z,235.30
2023-03-10T14:35:43.478Z,117.00
2023-03-10T14:38:11.355Z,78.50
2023-03-10T14:40:40.779Z,57.80
2023-03-10T14:43:13.722Z,41.10
2023-03-10T14:45:41.635Z,37.60
2023-03-10T14:48:14.689Z,51.10
2023-03-10T14:50:42.886Z,45.00
2023-03-10T14:56:05.025Z,55.60
2023-03-10T14:58:46.087Z,42.60
2023-03-10T15:01:13.971Z,45.20
2023-03-10T15:03:42.144Z,43.70
2023-03-10T15:06:12.335Z,40.70
2023-03-10T15:08:40.810Z,34.20
2023-03-10T15:11:08.954Z,33.60
2023-03-10T15:13:37.926Z,32.60
2023-03-10T15:16:06.615Z,52.40
2023-03-10T15:18:35.694Z,102.50
2023-03-10T15:21:03.586Z,118.00
2023-03-10T15:23:31.429Z,106.80
2023-03-10T15:25:59.619Z,124.20
2023-03-10T15:28:29.141Z,132.40
2023-03-10T15:30:57.209Z,123.90
2023-03-10T15:33:26.166Z,143.50
2023-03-10T15:35:55.137Z,160.40
2023-03-10T15:38:23.877Z,189.60
2023-03-10T15:40:52.156Z,131.40
2023-03-10T15:43:21.031Z,92.40
2023-03-10T15:45:51.914Z,102.30
2023-03-10T15:48:19.715Z,179.40
2023-03-10T15:50:48.566Z,93.00
2023-03-10T15:53:17.147Z,77.60
2023-03-10T15:55:52.739Z,76.20
2023-03-10T15:58:20.663Z,77.40
2023-03-10T16:00:48.580Z,67.10
2023-03-10T16:03:18.316Z,76.60
2023-03-10T16:05:50.459Z,61.40
2023-03-10T16:08:19.337Z,92.80
2023-03-10T16:10:54.441Z,140.60
2023-03-10T16:13:24.034Z,153.90
2023-03-10T16:15:52.805Z,133.90
2023-03-10T16:18:40.925Z,52.40
2023-03-10T16:21:08.618Z,61.10
2023-03-10T16:23:36.505Z,47.90
2023-03-10T16:26:05.283Z,57.10
2023-03-10T16:28:33.829Z,76.50
2023-03-10T16:31:37.956Z,75.50
2023-03-10T16:34:25.115Z,56.60
2023-03-10T16:36:54.891Z,59.10
2023-03-10T16:39:24.630Z,66.50
2023-03-10T16:41:52.629Z,72.20
2023-03-10T16:44:20.597Z,68.00
2023-03-10T16:46:48.768Z,91.00
2023-03-10T16:49:18.267Z,101.40
2023-03-10T16:51:46.851Z,97.40
2023-03-10T16:54:19.244Z,105.50
2023-03-10T16:56:57.193Z,180.30
2023-03-10T16:59:45.732Z,91.00
2023-03-10T17:02:15.700Z,77.60
2023-03-10T17:04:46.570Z,70.10
2023-03-10T17:07:16.115Z,133.00
2023-03-10T17:09:46.154Z,178.30
2023-03-10T17:12:18.172Z,215.70
2023-03-10T17:14:47.525Z,281.20
2023-03-10T17:17:17.642Z,340.10
2023-03-10T17:20:09.838Z,341.00
2023-03-10T17:22:39.148Z,381.40
2023-03-10T17:25:09.061Z,349.10
2023-03-10T17:27:37.812Z,438.90
2023-03-10T17:30:06.983Z,461.00
2023-03-10T17:32:40.768Z,382.30
2023-03-10T17:35:13.367Z,234.30
2023-03-10T17:37:46.663Z,185.70
2023-03-10T17:40:17.740Z,199.00
2023-03-10T17:42:46.664Z,249.80
2023-03-10T17:45:23.550Z,344.50
2023-03-10T17:48:15.881Z,355.90
2023-03-10T17:50:57.992Z,320.00
2023-03-10T17:53:31.871Z,249.00
2023-03-10T17:56:05.224Z,299.60
2023-03-10T17:58:33.834Z,532.40
2023-03-10T18:01:20.209Z,468.80
2023-03-10T18:03:53.176Z,404.10
2023-03-10T18:06:43.490Z,345.70
2023-03-10T18:09:16.052Z,286.40
2023-03-10T18:11:44.371Z,306.80
2023-03-10T18:14:14.623Z,136.60
2023-03-10T18:16:44.227Z,107.00
2023-03-10T18:19:13.398Z,108.90
2023-03-10T18:21:41.655Z,108.70
2023-03-10T18:24:17.595Z,104.40
2023-03-10T18:27:06.488Z,88.80
2023-03-10T18:29:43.728Z,152.50
2023-03-10T18:32:12.421Z,122.80
2023-03-10T18:34:42.458Z,83.50
2023-03-10T18:37:14.733Z,75.40
2023-03-10T18:39:49.756Z,71.80
2023-03-10T18:42:19.195Z,67.80
2023-03-10T18:44:48.496Z,57.20
2023-03-10T18:47:16.490Z,65.00
2023-03-10T18:49:50.507Z,54.40
2023-03-10T18:52:25.998Z,162.00
2023-03-10T18:55:04.841Z,266.70
2023-03-10T18:57:38.053Z,319.70
2023-03-10T19:00:14.359Z,281.30
2023-03-10T19:02:44.600Z,251.00
2023-03-10T19:05:14.112Z,247.30
2023-03-10T19:07:42.154Z,290.70
2023-03-10T19:10:12.312Z,274.30
2023-03-10T19:12:46.909Z,244.90
2023-03-10T19:15:15.767Z,301.40
2023-03-10T19:17:45.810Z,321.10
2023-03-10T19:20:14.555Z,262.70
2023-03-10T19:22:42.856Z,282.90
2023-03-10T19:25:14.883Z,404.80
2023-03-10T19:27:44.651Z,437.90
2023-03-10T19:30:14.158Z,459.50
2023-03-10T19:32:44.843Z,604.00
2023-03-10T19:35:13.724Z,616.50
2023-03-10T19:37:47.464Z,524.10
2023-03-10T19:40:17.481Z,452.00
2023-03-10T19:42:45.682Z,427.80
2023-03-10T19:45:14.930Z,411.80
2023-03-10T19:47:52.083Z,401.60
2023-03-10T19:50:20.257Z,425.90
2023-03-10T19:52:54.677Z,429.50
2023-03-10T19:55:23.825Z,442.80
2023-03-10T19:57:53.079Z,438.90
2023-03-10T20:00:28.810Z,401.20
2023-03-10T20:02:57.427Z,458.70
2023-03-10T20:05:28.929Z,469.10
2023-03-10T20:07:56.949Z,438.10
2023-03-10T20:10:24.751Z,423.00
2023-03-10T20:12:53.345Z,435.20
2023-03-10T20:15:21.695Z,403.50
2023-03-10T20:17:50.190Z,418.30
2023-03-10T20:20:31.896Z,391.30
2023-03-10T20:25:32.632Z,203.50
2023-03-10T20:28:00.890Z,186.40
2023-03-10T20:30:30.890Z,161.90
2023-03-10T20:32:59.654Z,97.30
2023-03-10T20:35:29.007Z,82.00
2023-03-10T20:37:58.108Z,83.30
2023-03-10T20:40:40.571Z,141.50
2023-03-10T20:43:10.742Z,115.30
2023-03-10T20:45:40.870Z,92.00
2023-03-10T20:48:10.280Z,124.70
2023-03-10T20:50:39.913Z,150.90
2023-03-10T20:53:14.879Z,122.50
2023-03-10T20:55:44.196Z,108.60
2023-03-10T20:58:13.273Z,144.10
2023-03-10T21:01:02.045Z,237.10
2023-03-10T21:03:33.358Z,129.70
2023-03-10T21:08:45.010Z,72.80
2023-03-10T21:11:13.679Z,69.20
2023-03-10T21:13:42.946Z,84.30
2023-03-10T21:16:11.120Z,85.80
2023-03-10T21:18:40.894Z,72.20
2023-03-10T21:21:10.258Z,73.70
2023-03-10T21:23:44.312Z,159.80
2023-03-10T21:26:17.122Z,173.80
2023-03-10T21:28:45.767Z,173.10
2023-03-10T21:31:14.616Z,169.40
2023-03-10T21:33:43.318Z,178.90
2023-03-10T21:36:14.650Z,148.50
2023-03-10T21:38:42.562Z,144.00
2023-03-10T21:41:12.108Z,146.40
2023-03-10T21:43:41.524Z,139.40
2023-03-10T21:46:11.464Z,164.50
2023-03-10T21:48:46.423Z,137.80
2023-03-10T21:51:16.249Z,97.40
2023-03-10T21:53:44.949Z,123.90
2023-03-10T21:56:18.276Z,142.60
2023-03-10T21:58:46.962Z,82.30
2023-03-10T22:01:16.377Z,67.90
2023-03-10T22:03:44.525Z,69.40
2023-03-10T22:06:12.415Z,101.80
2023-03-10T22:08:40.761Z,136.50
2023-03-10T22:11:09.448Z,238.20
2023-03-10T22:13:37.908Z,394.70
2023-03-10T22:16:10.908Z,440.80
2023-03-10T22:18:39.318Z,414.80
2023-03-10T22:21:07.103Z,419.10
2023-03-10T22:23:34.897Z,421.70
2023-03-10T22:26:02.816Z,458.60
2023-03-10T22:28:30.571Z,478.40
2023-03-10T22:30:58.559Z,475.20
2023-03-10T22:33:26.648Z,465.20
2023-03-10T22:36:04.870Z,475.50
2023-03-10T22:38:32.719Z,476.70
2023-03-10T22:41:00.396Z,469.00
2023-03-10T22:43:28.352Z,441.50
2023-03-10T22:45:59.291Z,408.00
2023-03-10T22:48:27.220Z,260.00
2023-03-10T22:50:57.643Z,199.80
2023-03-10T22:53:25.568Z,346.60
2023-03-10T22:55:54.668Z,243.40
2023-03-10T22:58:23.107Z,168.90
2023-03-10T23:00:50.864Z,189.70
2023-03-10T23:03:18.656Z,110.40
2023-03-10T23:05:46.912Z,78.40
2023-03-10T23:08:16.279Z,48.10
2023-03-10T23:10:44.120Z,49.60
2023-03-10T23:13:13.645Z,41.10
2023-03-10T23:15:42.735Z,44.40
2023-03-10T23:18:11.142Z,39.40
2023-03-10T23:20:40.500Z,42.30
2023-03-10T23:23:09.237Z,51.40
2023-03-10T23:25:38.828Z,58.80
2023-03-10T23:28:08.022Z,56.10
2023-03-10T23:30:43.097Z,48.70
2023-03-10T23:33:16.291Z,47.80
2023-03-10T23:35:46.309Z,76.10
2023-03-10T23:38:14.132Z,80.10
2023-03-10T23:40:41.856Z,88.40
2023-03-10T23:43:09.551Z,87.30
2023-03-10T23:45:38.367Z,68.20
2023-03-10T23:48:07.795Z,66.70
2023-03-10T23:50:36.923Z,48.40
2023-03-10T23:53:05.557Z,38.90
2023-03-10T23:55:34.661Z,39.40
2023-03-10T23:58:02.801Z,32.90
